createdAt,value
2019-05-07T00:01:55.172Z,100010.20
2019-05-07T00:04:26.943Z,100015.44
2019-05-07T00:06:58.306Z,100015.67
2019-05-07T00:09:32.141Z,100018.67
2019-05-07T00:12:05.061Z,100019.20
2019-05-07T00:14:35.987Z,100021.02
2019-05-07T00:17:09.019Z,100019.87
2019-05-07T00:19:40.374Z,100019.38
2019-05-07T00:22:12.570Z,100019.75
2019-05-07T00:24:44.252Z,100018.95
2019-05-07T00:27:15.605Z,100017.73
2019-05-07T00:29:47.036Z,100019.48
2019-05-07T00:32:18.421Z,100019.00
2019-05-07T00:35:06.650Z,100019.38
2019-05-07T00:37:40.050Z,100020.28
2019-05-07T00:40:13.609Z,100017.04
2019-05-07T00:43:02.967Z,100014.47
2019-05-07T00:45:35.979Z,100017.70
2019-05-07T00:48:07.271Z,100019.30
2019-05-07T00:50:42.035Z,100011.62
2019-05-07T00:53:13.427Z,100007.97
2019-05-07T00:55:44.720Z,100008.84
2019-05-07T00:58:16.065Z,100004.13
2019-05-07T01:00:47.463Z,100001.41
2019-05-07T01:03:18.787Z,100004.25
2019-05-07T01:05:52.496Z,100008.20
2019-05-07T01:08:23.788Z,100006.95
2019-05-07T01:10:55.061Z,100002.20
2019-05-07T01:13:26.445Z,100002.97
2019-05-07T01:15:57.897Z,100002.92
2019-05-07T01:18:29.275Z,100003.53
2019-05-07T01:21:02.387Z,100000.05
2019-05-07T01:23:34.880Z,99991.41
2019-05-07T01:26:06.533Z,99992.06
2019-05-07T01:28:55.581Z,99985.70
2019-05-07T01:31:33.039Z,99979.96
2019-05-07T01:34:14.986Z,99984.00
2019-05-07T01:36:46.318Z,99978.00
2019-05-07T01:39:23.009Z,99973.86
2019-05-07T01:41:53.659Z,99977.42
2019-05-07T01:44:25.911Z,99982.27
2019-05-07T01:46:57.348Z,99986.97
2019-05-07T01:49:28.706Z,99986.41
2019-05-07T01:52:02.301Z,99983.66
2019-05-07T01:54:33.509Z,99983.97
2019-05-07T01:57:04.886Z,99984.66
2019-05-07T01:59:36.142Z,99985.14
2019-05-07T02:02:14.851Z,99982.38
2019-05-07T02:04:47.840Z,99981.19
2019-05-07T02:07:22.591Z,99983.84
2019-05-07T02:10:03.963Z,99980.08
2019-05-07T02:12:36.959Z,99976.94
2019-05-07T02:15:09.413Z,99975.70
2019-05-07T02:17:43.011Z,99979.36
2019-05-07T02:20:14.187Z,99980.90
2019-05-07T02:22:45.457Z,99978.94
2019-05-07T02:25:16.728Z,99971.23
2019-05-07T02:27:47.986Z,99984.70
2019-05-07T02:30:19.235Z,99985.03
2019-05-07T02:32:53.682Z,99976.59
2019-05-07T02:35:23.847Z,99972.50
2019-05-07T02:38:05.975Z,99976.83
2019-05-07T02:40:43.314Z,99972.02
2019-05-07T02:43:14.847Z,99979.70
2019-05-07T02:46:17.499Z,99978.52
2019-05-07T02:48:53.642Z,99974.25
2019-05-07T02:51:35.840Z,99972.95
2019-05-07T02:54:25.865Z,99981.80
2019-05-07T02:56:57.169Z,99975.14
2019-05-07T02:59:29.376Z,99975.03
2019-05-07T03:02:03.355Z,99967.81
2019-05-07T03:04:33.654Z,99972.68
2019-05-07T03:07:05.278Z,99980.92
2019-05-07T03:09:36.697Z,99974.83
2019-05-07T03:12:08.944Z,99974.27
2019-05-07T03:14:43.559Z,99973.17
2019-05-07T03:17:13.750Z,99975.56
2019-05-07T03:19:46.736Z,99978.86
2019-05-07T03:22:17.981Z,99973.94
2019-05-07T03:24:57.153Z,99979.47
2019-05-07T03:27:28.430Z,99973.17
2019-05-07T03:30:04.411Z,99979.83
2019-05-07T03:32:38.704Z,99981.17
2019-05-07T03:35:28.140Z,99986.25
2019-05-07T03:38:03.078Z,99987.74
2019-05-07T03:40:34.443Z,99987.98
2019-05-07T03:43:06.492Z,99984.09
2019-05-07T03:45:56.147Z,99981.73
2019-05-07T03:48:29.133Z,99987.25
2019-05-07T03:51:03.401Z,99993.42
2019-05-07T03:53:34.096Z,99998.09
2019-05-07T03:56:05.723Z,99994.97
2019-05-07T03:58:37.040Z,99986.39
2019-05-07T04:01:08.370Z,99992.95
2019-05-07T04:03:39.656Z,99997.09
2019-05-07T04:06:12.800Z,100000.22
2019-05-07T04:08:44.015Z,99992.61
2019-05-07T04:11:15.342Z,99994.13
2019-05-07T04:13:46.601Z,99992.95
2019-05-07T04:16:17.930Z,99995.43
2019-05-07T04:18:49.201Z,99995.27
2019-05-07T04:21:22.984Z,99990.79
2019-05-07T04:23:55.205Z,99996.72
2019-05-07T04:26:44.733Z,99997.51
2019-05-07T04:29:17.737Z,99999.09
2019-05-07T04:31:49.122Z,99999.45
2019-05-07T04:34:24.982Z,99994.84
2019-05-07T04:36:56.420Z,99991.79
2019-05-07T04:39:27.839Z,99994.17
2019-05-07T04:41:59.301Z,99991.20
2019-05-07T04:44:33.183Z,99993.86
2019-05-07T04:47:04.645Z,99992.48
2019-05-07T04:49:36.986Z,99987.13
2019-05-07T04:52:12.480Z,99981.55
2019-05-07T04:54:43.827Z,99985.83
2019-05-07T04:57:27.598Z,99985.78
2019-05-07T05:00:02.584Z,99984.48
2019-05-07T05:02:34.206Z,99990.28
2019-05-07T05:05:05.845Z,99988.77
2019-05-07T05:07:37.217Z,99989.92
2019-05-07T05:10:08.876Z,99990.78
2019-05-07T05:12:42.674Z,99987.20
2019-05-07T05:15:13.260Z,99992.86
2019-05-07T05:17:50.455Z,99989.49
2019-05-07T05:20:22.071Z,99990.16
2019-05-07T05:23:07.110Z,99987.26
2019-05-07T05:25:43.230Z,99986.73
2019-05-07T05:28:15.719Z,99985.02
2019-05-07T05:30:48.674Z,99976.28
2019-05-07T05:33:20.026Z,99975.02
2019-05-07T05:35:52.537Z,99970.20
2019-05-07T05:38:23.973Z,99974.14
2019-05-07T05:40:55.317Z,99971.59
2019-05-07T05:43:31.922Z,99972.91
2019-05-07T05:46:05.133Z,99967.47
2019-05-07T05:48:36.537Z,99975.59
2019-05-07T05:51:12.447Z,99973.48
2019-05-07T05:53:52.423Z,99973.33
2019-05-07T05:56:28.509Z,99971.23
2019-05-07T05:59:07.284Z,99974.45
2019-05-07T06:01:56.685Z,99974.82
2019-05-07T06:04:32.929Z,99968.48
2019-05-07T06:07:13.938Z,99963.09
2019-05-07T06:09:43.697Z,99964.84
2019-05-07T06:12:25.786Z,99963.73
2019-05-07T06:14:58.931Z,99968.18
2019-05-07T06:17:48.406Z,99959.02
2019-05-07T06:20:36.591Z,99963.73
2019-05-07T06:23:22.620Z,99954.27
2019-05-07T06:25:55.072Z,99960.20
2019-05-07T06:28:26.333Z,99961.84
2019-05-07T06:30:57.620Z,99966.16
2019-05-07T06:33:29.056Z,99959.46
2019-05-07T06:36:02.674Z,99953.48
2019-05-07T06:38:35.128Z,99954.20
2019-05-07T06:41:08.088Z,99958.45
2019-05-07T06:43:42.154Z,99957.88
2019-05-07T06:46:13.612Z,99945.36
2019-05-07T06:48:46.187Z,99949.19
2019-05-07T06:51:17.903Z,99946.62
2019-05-07T06:53:49.308Z,99940.05
2019-05-07T06:56:22.899Z,99933.59
2019-05-07T06:59:02.208Z,99927.69
2019-05-07T07:01:52.984Z,99931.73
2019-05-07T07:04:26.089Z,99927.28
2019-05-07T07:06:58.988Z,99928.00
2019-05-07T07:09:37.837Z,99923.19
2019-05-07T07:12:21.923Z,99926.00
2019-05-07T07:14:52.737Z,99920.26
2019-05-07T07:17:25.147Z,99921.15
2019-05-07T07:19:56.431Z,99914.76
2019-05-07T07:22:27.784Z,99912.11
2019-05-07T07:24:59.059Z,99906.86
2019-05-07T07:27:32.206Z,99907.98
2019-05-07T07:30:06.127Z,99916.11
2019-05-07T07:32:39.112Z,99907.75
2019-05-07T07:35:12.975Z,99911.34
2019-05-07T07:37:44.430Z,99902.98
2019-05-07T07:40:18.121Z,99902.44
2019-05-07T07:42:52.043Z,99901.00
2019-05-07T07:45:23.633Z,99899.64
2019-05-07T07:47:54.987Z,99898.25
2019-05-07T07:50:26.303Z,99893.43
2019-05-07T07:52:57.644Z,99893.96
2019-05-07T07:55:32.908Z,99895.42
2019-05-07T07:58:05.252Z,99882.06
2019-05-07T08:00:38.177Z,99869.73
2019-05-07T08:03:13.214Z,99868.63
2019-05-07T08:05:44.041Z,99865.02
2019-05-07T08:08:15.395Z,99865.03
2019-05-07T08:10:46.750Z,99856.14
2019-05-07T08:13:18.999Z,99860.86
2019-05-07T08:15:51.916Z,99864.26
2019-05-07T08:18:23.411Z,99870.08
2019-05-07T08:20:54.817Z,99878.67
2019-05-07T08:23:26.174Z,99874.77
2019-05-07T08:25:57.470Z,99871.06
2019-05-07T08:28:28.725Z,99876.28
2019-05-07T08:31:04.662Z,99876.10
2019-05-07T08:33:43.530Z,99875.12
2019-05-07T08:36:16.457Z,99864.61
2019-05-07T08:38:52.943Z,99868.09
2019-05-07T08:41:26.605Z,99867.02
2019-05-07T08:44:10.651Z,99870.12
2019-05-07T08:46:39.575Z,99866.48
2019-05-07T08:49:15.238Z,99865.67
2019-05-07T08:51:48.266Z,99864.94
2019-05-07T08:54:19.518Z,99848.50
2019-05-07T08:56:52.759Z,99847.28
2019-05-07T08:59:24.250Z,99844.08
2019-05-07T09:01:55.612Z,99838.36
2019-05-07T09:04:26.959Z,99836.95
2019-05-07T09:06:58.329Z,99836.76
2019-05-07T09:09:29.596Z,99837.47
2019-05-07T09:12:02.995Z,99833.81
2019-05-07T09:14:33.909Z,99828.01
2019-05-07T09:17:05.280Z,99836.59
2019-05-07T09:19:48.309Z,99836.20
2019-05-07T09:22:12.701Z,99833.34
2019-05-07T09:24:44.158Z,99832.47
2019-05-07T09:27:17.231Z,99827.24
2019-05-07T09:29:52.856Z,99823.94
2019-05-07T09:32:35.076Z,99827.92
2019-05-07T09:35:13.970Z,99824.28
2019-05-07T09:37:45.238Z,99820.33
2019-05-07T09:40:16.541Z,99815.34
2019-05-07T09:42:47.919Z,99822.97
2019-05-07T09:45:19.258Z,99820.42
2019-05-07T09:47:52.220Z,99819.53
2019-05-07T09:50:23.832Z,99816.78
2019-05-07T09:52:55.273Z,99807.23
2019-05-07T09:55:26.602Z,99814.64
2019-05-07T09:57:57.934Z,99806.44
2019-05-07T10:00:32.006Z,99814.63
2019-05-07T10:03:03.334Z,99816.88
2019-05-07T10:05:34.678Z,99809.81
2019-05-07T10:08:06.114Z,99810.45
2019-05-07T10:10:37.686Z,99814.74
2019-05-07T10:13:12.224Z,99809.50
2019-05-07T10:15:43.724Z,99806.08
2019-05-07T10:18:16.429Z,99811.13
2019-05-07T10:20:47.892Z,99809.14
2019-05-07T10:23:23.083Z,99805.82
2019-05-07T10:25:55.239Z,99804.92
2019-05-07T10:28:28.209Z,99807.34
2019-05-07T10:30:59.584Z,99801.45
2019-05-07T10:33:31.961Z,99788.69
2019-05-07T10:36:05.423Z,99788.05
2019-05-07T10:38:36.805Z,99783.26
2019-05-07T10:41:08.190Z,99790.54
2019-05-07T10:43:39.815Z,99797.55
2019-05-07T10:46:12.954Z,99796.05
2019-05-07T10:48:47.203Z,99797.11
2019-05-07T10:51:18.601Z,99795.00
2019-05-07T10:53:51.803Z,99800.52
2019-05-07T10:56:24.282Z,99800.12
2019-05-07T10:58:55.893Z,99800.88
2019-05-07T11:01:37.975Z,99793.88
2019-05-07T11:04:09.264Z,99798.92
2019-05-07T11:06:48.856Z,99798.36
2019-05-07T11:09:30.289Z,99801.31
2019-05-07T11:12:02.557Z,99799.34
2019-05-07T11:14:34.118Z,99801.22
2019-05-07T11:17:23.189Z,99790.63
2019-05-07T11:19:54.558Z,99799.82
2019-05-07T11:22:26.731Z,99792.53
2019-05-07T11:24:58.111Z,99788.69
2019-05-07T11:27:32.834Z,99786.94
2019-05-07T11:30:04.747Z,99784.69
2019-05-07T11:32:36.173Z,99788.66
2019-05-07T11:35:08.327Z,99787.59
2019-05-07T11:37:39.707Z,99782.16
2019-05-07T11:40:13.106Z,99788.45
2019-05-07T11:43:02.477Z,99784.36
2019-05-07T11:45:47.936Z,99783.36
2019-05-07T11:48:22.128Z,99783.23
2019-05-07T11:51:07.674Z,99786.13
2019-05-07T11:53:41.889Z,99783.01
2019-05-07T11:56:14.636Z,99779.50
2019-05-07T11:58:46.065Z,99773.98
2019-05-07T12:01:19.414Z,99776.48
2019-05-07T12:03:52.046Z,99782.92
2019-05-07T12:06:24.499Z,99784.65
2019-05-07T12:08:55.836Z,99782.90
2019-05-07T12:11:27.267Z,99794.36
2019-05-07T12:13:58.692Z,99781.59
2019-05-07T12:16:32.120Z,99791.62
2019-05-07T12:19:03.225Z,99796.61
2019-05-07T12:21:35.317Z,99790.28
2019-05-07T12:24:06.897Z,99780.37
2019-05-07T12:26:41.712Z,99779.41
2019-05-07T12:29:13.191Z,99779.87
2019-05-07T12:31:46.260Z,99771.80
2019-05-07T12:34:19.277Z,99769.84
2019-05-07T12:36:52.414Z,99762.86
2019-05-07T12:39:23.964Z,99757.79
2019-05-07T12:41:55.354Z,99758.00
2019-05-07T12:44:26.871Z,99756.34
2019-05-07T12:46:58.318Z,99739.59
2019-05-07T12:49:29.790Z,99741.81
2019-05-07T12:52:09.897Z,99744.30
2019-05-07T12:54:45.593Z,99729.75
2019-05-07T12:57:16.978Z,99725.08
2019-05-07T12:59:49.679Z,99726.16
2019-05-07T13:02:37.084Z,99721.06
2019-05-07T13:04:58.036Z,99714.07
2019-05-07T13:07:32.417Z,99709.02
2019-05-07T13:10:08.234Z,99702.20
2019-05-07T13:12:39.189Z,99698.84
2019-05-07T13:15:24.389Z,99693.99
2019-05-07T13:17:43.936Z,99691.26
2019-05-07T13:20:15.678Z,99691.33
2019-05-07T13:22:47.078Z,99693.52
2019-05-07T13:25:18.744Z,99700.20
2019-05-07T13:27:52.110Z,99694.67
2019-05-07T13:30:24.281Z,99695.52
2019-05-07T13:32:56.890Z,99688.23
2019-05-07T13:35:28.333Z,99698.42
2019-05-07T13:38:04.288Z,99704.59
2019-05-07T13:40:37.436Z,99705.63
2019-05-07T13:43:23.081Z,99709.45
2019-05-07T13:45:56.211Z,99714.19
2019-05-07T13:48:28.767Z,99717.55
2019-05-07T13:51:01.790Z,99722.70
2019-05-07T13:53:33.213Z,99723.60
2019-05-07T13:56:04.897Z,99723.13
2019-05-07T13:58:36.298Z,99731.41
2019-05-07T14:01:12.247Z,99731.27
2019-05-07T14:03:43.622Z,99730.91
2019-05-07T14:06:16.746Z,99727.08
2019-05-07T14:08:48.125Z,99730.21
2019-05-07T14:11:22.342Z,99729.42
2019-05-07T14:13:53.404Z,99725.77
2019-05-07T14:16:24.729Z,99729.36
2019-05-07T14:18:56.107Z,99734.41
2019-05-07T14:21:27.529Z,99725.92
2019-05-07T14:23:58.904Z,99726.27
2019-05-07T14:26:32.441Z,99736.13
2019-05-07T14:29:03.270Z,99733.73
2019-05-07T14:31:34.672Z,99732.88
2019-05-07T14:34:12.507Z,99736.72
2019-05-07T14:36:45.470Z,99746.27
2019-05-07T14:39:16.935Z,99745.12
2019-05-07T14:41:51.925Z,99744.87
2019-05-07T14:44:23.276Z,99750.48
2019-05-07T14:46:54.624Z,99755.27
2019-05-07T14:49:26.015Z,99756.75
2019-05-07T14:51:57.357Z,99761.52
2019-05-07T14:54:28.638Z,99769.08
2019-05-07T14:57:02.160Z,99767.48
2019-05-07T14:59:33.194Z,99766.06
2019-05-07T15:02:04.948Z,99763.61
2019-05-07T15:04:36.296Z,99756.68
2019-05-07T15:07:07.921Z,99749.69
2019-05-07T15:09:42.463Z,99746.64
2019-05-07T15:12:15.532Z,99741.38
2019-05-07T15:14:47.023Z,99736.61
2019-05-07T15:17:26.000Z,99737.94
2019-05-07T15:19:57.401Z,99739.66
2019-05-07T15:22:47.173Z,99733.52
2019-05-07T15:25:13.616Z,99744.71
2019-05-07T15:27:46.439Z,99748.97
2019-05-07T15:30:18.210Z,99769.73
2019-05-07T15:32:49.619Z,99783.12
2019-05-07T15:35:20.954Z,99788.28
2019-05-07T15:37:52.281Z,99789.83
2019-05-07T15:40:23.850Z,99804.20
2019-05-07T15:42:55.144Z,99810.17
2019-05-07T15:45:26.404Z,99827.00
2019-05-07T15:47:58.734Z,99833.14
2019-05-07T15:50:32.057Z,99843.86
2019-05-07T15:53:04.902Z,99842.56
2019-05-07T15:55:36.242Z,99852.34
2019-05-07T15:58:07.600Z,99863.84
2019-05-07T16:00:39.198Z,99873.88
2019-05-07T16:03:12.320Z,99887.80
2019-05-07T16:05:43.841Z,99884.66
2019-05-07T16:08:16.650Z,99896.65
2019-05-07T16:10:48.178Z,99903.73
2019-05-07T16:13:22.371Z,99906.66
2019-05-07T16:15:54.976Z,99891.20
2019-05-07T16:18:32.666Z,99876.12
2019-05-07T16:21:05.217Z,99880.02
2019-05-07T16:23:36.618Z,99890.38
2019-05-07T16:26:07.916Z,99884.55
2019-05-07T16:28:39.253Z,99884.02
2019-05-07T16:31:10.522Z,99863.92
2019-05-07T16:33:43.078Z,99861.95
2019-05-07T16:36:14.368Z,99865.09
2019-05-07T16:38:47.545Z,99867.57
2019-05-07T16:41:18.830Z,99867.88
2019-05-07T16:43:52.281Z,99867.27
2019-05-07T16:46:23.247Z,99861.18
2019-05-07T16:48:54.656Z,99863.41
2019-05-07T16:51:26.027Z,99862.81
2019-05-07T16:53:57.454Z,99864.22
2019-05-07T16:56:29.056Z,99866.53
2019-05-07T16:59:02.067Z,99863.57
2019-05-07T17:01:33.426Z,99863.44
2019-05-07T17:04:05.402Z,99864.87
2019-05-07T17:06:36.904Z,99863.42
2019-05-07T17:09:09.900Z,99857.22
2019-05-07T17:11:43.463Z,99852.98
2019-05-07T17:14:14.196Z,99857.66
2019-05-07T17:16:47.320Z,99858.73
2019-05-07T17:19:18.762Z,99868.30
2019-05-07T17:21:51.958Z,99868.45
2019-05-07T17:24:23.278Z,99870.81
2019-05-07T17:26:54.644Z,99872.84
2019-05-07T17:29:25.976Z,99872.42
2019-05-07T17:31:57.255Z,99870.83
2019-05-07T17:34:28.566Z,99869.94
2019-05-07T17:37:01.988Z,99866.93
2019-05-07T17:39:33.105Z,99871.05
2019-05-07T17:42:04.466Z,99875.09
2019-05-07T17:44:37.873Z,99873.25
2019-05-07T17:47:09.220Z,99880.09
2019-05-07T17:49:41.806Z,99884.37
2019-05-07T17:52:14.072Z,99880.97
2019-05-07T17:54:45.925Z,99885.86
2019-05-07T17:57:18.896Z,99886.00
2019-05-07T17:59:52.492Z,99888.20
2019-05-07T18:02:25.248Z,99889.75
2019-05-07T18:04:56.677Z,99887.91
2019-05-07T18:07:28.028Z,99894.63
2019-05-07T18:09:59.516Z,99889.35
2019-05-07T18:12:32.019Z,99884.29
2019-05-07T18:15:04.848Z,99883.47
2019-05-07T18:17:43.672Z,99886.63
2019-05-07T18:20:15.251Z,99885.23
2019-05-07T18:22:46.670Z,99876.16
2019-05-07T18:25:18.229Z,99883.38
2019-05-07T18:27:49.611Z,99883.09
2019-05-07T18:30:23.529Z,99883.87
2019-05-07T18:33:02.415Z,99878.63
2019-05-07T18:35:34.085Z,99886.00
2019-05-07T18:38:05.538Z,99880.58
2019-05-07T18:40:38.595Z,99880.79
2019-05-07T18:43:12.080Z,99875.69
2019-05-07T18:45:43.256Z,99883.66
2019-05-07T18:48:14.642Z,99886.13
2019-05-07T18:50:46.317Z,99889.78
2019-05-07T18:53:18.036Z,99887.27
2019-05-07T18:55:51.601Z,99879.34
2019-05-07T18:58:22.797Z,99882.98
2019-05-07T19:01:07.964Z,99879.45
2019-05-07T19:03:39.433Z,99876.33
2019-05-07T19:06:13.515Z,99881.78
2019-05-07T19:08:44.590Z,99885.40
2019-05-07T19:11:16.118Z,99876.41
2019-05-07T19:13:47.684Z,99876.72
2019-05-07T19:16:19.213Z,99881.78
2019-05-07T19:18:50.617Z,99875.08
2019-05-07T19:21:22.478Z,99874.84
2019-05-07T19:23:54.186Z,99877.00
2019-05-07T19:26:25.637Z,99873.38
2019-05-07T19:28:57.134Z,99872.19
2019-05-07T19:31:28.732Z,99865.22
2019-05-07T19:34:00.289Z,99864.23
2019-05-07T19:36:32.243Z,99859.27
2019-05-07T19:39:05.350Z,99853.11
2019-05-07T19:41:37.233Z,99853.32
2019-05-07T19:44:09.716Z,99845.28
2019-05-07T19:46:41.142Z,99841.19
2019-05-07T19:49:12.612Z,99849.23
2019-05-07T19:51:44.109Z,99858.22
2019-05-07T19:54:15.583Z,99854.08
2019-05-07T19:56:47.098Z,99861.34
2019-05-07T19:59:18.706Z,99861.17
2019-05-07T20:01:51.913Z,99862.19
2019-05-07T20:04:23.349Z,99875.70
2019-05-07T20:06:54.840Z,99882.17
2019-05-07T20:09:28.551Z,99887.45
2019-05-07T20:12:00.043Z,99886.15
2019-05-07T20:14:33.065Z,99889.92
2019-05-07T20:17:05.104Z,99894.19
2019-05-07T20:19:37.043Z,99889.27
2019-05-07T20:22:08.982Z,99890.25
2019-05-07T20:24:41.797Z,99888.30
2019-05-07T20:27:13.582Z,99897.22
2019-05-07T20:29:45.115Z,99903.57
2019-05-07T20:32:16.802Z,99905.05
2019-05-07T20:34:48.429Z,99919.09
2019-05-07T20:37:21.523Z,99918.47
2019-05-07T20:39:53.222Z,99926.64
2019-05-07T20:42:26.319Z,99926.86
2019-05-07T20:44:59.930Z,99933.39
2019-05-07T20:47:32.539Z,99935.53
2019-05-07T20:50:06.676Z,99942.38
2019-05-07T20:52:38.268Z,99940.97
2019-05-07T20:55:27.965Z,99941.12
2019-05-07T20:57:51.052Z,99947.05
2019-05-07T21:00:25.015Z,99944.39
2019-05-07T21:03:14.891Z,99944.78
2019-05-07T21:05:46.328Z,99943.25
2019-05-07T21:08:18.867Z,99944.49
2019-05-07T21:10:50.244Z,99941.59
2019-05-07T21:13:28.482Z,99943.83
2019-05-07T21:15:55.084Z,99949.34
2019-05-07T21:18:26.647Z,99952.98
2019-05-07T21:20:58.113Z,99954.70
2019-05-07T21:23:29.621Z,99954.70
2019-05-07T21:26:02.187Z,99951.30
2019-05-07T21:28:33.926Z,99956.24
2019-05-07T21:31:05.289Z,99952.95
2019-05-07T21:33:37.599Z,99964.17
2019-05-07T21:36:09.136Z,99969.83
2019-05-07T21:38:42.548Z,99963.32
2019-05-07T21:41:13.839Z,99954.84
2019-05-07T21:43:46.612Z,99957.66
2019-05-07T21:46:17.976Z,99960.66
2019-05-07T21:48:51.777Z,99967.11
2019-05-07T21:51:23.697Z,99969.19
2019-05-07T21:53:59.854Z,99973.91
2019-05-07T21:56:32.955Z,99970.11
2019-05-07T21:59:06.046Z,99967.75
2019-05-07T22:01:43.403Z,99969.13
2019-05-07T22:04:12.605Z,99963.19
2019-05-07T22:06:45.578Z,99973.34
2019-05-07T22:09:17.578Z,99965.70
2019-05-07T22:11:49.024Z,99972.82
2019-05-07T22:14:22.317Z,99968.22
2019-05-07T22:16:54.640Z,99968.41
2019-05-07T22:19:26.278Z,99970.92
2019-05-07T22:21:57.676Z,99963.03
2019-05-07T22:24:29.191Z,99955.90
2019-05-07T22:27:01.739Z,99952.81
2019-05-07T22:29:33.752Z,99943.88
2019-05-07T22:32:12.650Z,99947.11
2019-05-07T22:34:51.851Z,99948.16
2019-05-07T22:37:26.215Z,99953.38
2019-05-07T22:40:07.010Z,99947.92
2019-05-07T22:42:39.467Z,99952.39
2019-05-07T22:45:12.128Z,99952.67
2019-05-07T22:47:43.875Z,99951.53
2019-05-07T22:50:15.495Z,99961.66
2019-05-07T22:52:46.959Z,99966.22
2019-05-07T22:55:18.372Z,99967.41
2019-05-07T22:57:54.391Z,99967.50
2019-05-07T23:00:32.123Z,99983.48
2019-05-07T23:03:03.716Z,99991.76
2019-05-07T23:05:35.226Z,99990.98
2019-05-07T23:08:06.679Z,99994.80
2019-05-07T23:10:38.105Z,99996.18
2019-05-07T23:13:09.413Z,100002.22
2019-05-07T23:15:42.919Z,100008.91
2019-05-07T23:18:14.132Z,100020.53
2019-05-07T23:20:45.570Z,100019.63
2019-05-07T23:23:16.965Z,100022.76
2019-05-07T23:25:48.456Z,100025.79
2019-05-07T23:28:19.968Z,100022.56
2019-05-07T23:30:51.933Z,100031.41
2019-05-07T23:33:23.497Z,100041.06
2019-05-07T23:35:55.042Z,100051.87
2019-05-07T23:38:26.555Z,100051.06
2019-05-07T23:41:08.449Z,100051.06
2019-05-07T23:43:40.015Z,100055.49
2019-05-07T23:46:12.835Z,100051.59
2019-05-07T23:48:44.450Z,100039.83
2019-05-07T23:51:15.984Z,100045.84
2019-05-07T23:53:47.384Z,100038.41
2019-05-07T23:56:18.928Z,100039.50
2019-05-07T23:58:52.445Z,100037.17
